Capitol Logistics 439


KRFD
Chicago/Rockford International Airport
Rockford, Illinois, US
KPHL
Philadelphia International Airport
Philadelphia, Pennsylvania, US

Activity Log

Date Flight Route Aircraft Duration
09/25/2019 CPX439 JERKY JOT DJB JST BOJID2 B738 1h 42m
09/19/2019 CPX439 AHMED DJB JST BOJID2 B738 1h 51m

Route Details

Aircraft Information
Primary: Boeing 737-800BCF
Backup: Not Available
Route Data
Distance: 643nm
Sched. Duration: 1h 39m
Avg. Duration: 1h 47m (+7m)
Times Flown: 2
Recm'd Route: AHMED DJB JST BOJID2
Planned Altitude: 33,000ft
Origin Wx: KRFD 260554Z 36011KT 9SM -SN OVC047 02/M02 A3024 RMK AO2 SLP245 P0000 60000 T00171022 10028 20017 400610017 50003
Dest. Wx: KPHL 260639Z 03004KT 2SM BR OVC004 09/09 A3019 RMK AO2 T00940089
Notes:

Financial History
Total Freight: 76,032lbs
Average Load: 38,016lbs/flt
Fuel Used: 18,561lbs
Avg. Fuel Used: 9,281lbs/flt
Fuel Expense: $13,178
Avg. Fuel Expense: $6,589
Avg. Fuel Cost: $0.71/lbs
Total Gross Income: $95,040
Pilot Pay: $458
Total Expenses: $10,368
Total Revenue: $70,658
Average Revenue: $47,520.00